sensor_id;sensor_type;location;lat;lon;timestamp;temperature;humidity
25504;DHT22;13410;52.114;5.718;2023-11-21T00:02:14;13.00;99.90
25504;DHT22;13410;52.114;5.718;2023-11-21T00:04:39;13.10;99.90
25504;DHT22;13410;52.114;5.718;2023-11-21T00:07:05;13.10;99.90
25504;DHT22;13410;52.114;5.718;2023-11-21T00:09:31;13.10;99.90
25504;DHT22;13410;52.114;5.718;2023-11-21T00:11:57;13.00;99.90
25504;DHT22;13410;52.114;5.718;2023-11-21T00:14:24;13.00;99.90
25504;DHT22;13410;52.114;5.718;2023-11-21T00:16:50;13.10;99.90
25504;DHT22;13410;52.114;5.718;2023-11-21T00:19:16;12.90;99.90
25504;DHT22;13410;52.114;5.718;2023-11-21T00:21:42;12.90;99.90
25504;DHT22;13410;52.114;5.718;2023-11-21T00:24:09;12.90;99.90
25504;DHT22;13410;52.114;5.718;2023-11-21T00:26:35;12.90;99.90
25504;DHT22;13410;52.114;5.718;2023-11-21T00:29:03;12.80;99.90
25504;DHT22;13410;52.114;5.718;2023-11-21T00:31:30;12.70;99.90
25504;DHT22;13410;52.114;5.718;2023-11-21T00:33:56;12.70;99.90
25504;DHT22;13410;52.114;5.718;2023-11-21T00:36:22;12.60;99.90
25504;DHT22;13410;52.114;5.718;2023-11-21T00:38:47;12.70;99.90
25504;DHT22;13410;52.114;5.718;2023-11-21T00:41:13;12.60;99.90
25504;DHT22;13410;52.114;5.718;2023-11-21T00:43:39;12.60;99.90
25504;DHT22;13410;52.114;5.718;2023-11-21T00:46:05;12.60;99.90
25504;DHT22;13410;52.114;5.718;2023-11-21T00:48:33;12.60;99.90
25504;DHT22;13410;52.114;5.718;2023-11-21T00:50:58;12.60;99.90
25504;DHT22;13410;52.114;5.718;2023-11-21T00:53:24;12.60;99.90
25504;DHT22;13410;52.114;5.718;2023-11-21T00:55:49;12.60;99.90
25504;DHT22;13410;52.114;5.718;2023-11-21T00:58:17;12.60;99.90
25504;DHT22;13410;52.114;5.718;2023-11-21T01:00:43;12.60;99.90
25504;DHT22;13410;52.114;5.718;2023-11-21T01:03:09;12.60;99.90
25504;DHT22;13410;52.114;5.718;2023-11-21T01:05:34;12.60;99.90
25504;DHT22;13410;52.114;5.718;2023-11-21T01:08:00;12.50;99.90
25504;DHT22;13410;52.114;5.718;2023-11-21T01:10:25;12.60;99.90
25504;DHT22;13410;52.114;5.718;2023-11-21T01:12:51;12.60;99.90
25504;DHT22;13410;52.114;5.718;2023-11-21T01:15:16;12.60;99.90
25504;DHT22;13410;52.114;5.718;2023-11-21T01:17:42;12.60;99.90
25504;DHT22;13410;52.114;5.718;2023-11-21T01:20:08;12.60;99.90
25504;DHT22;13410;52.114;5.718;2023-11-21T01:22:38;12.50;99.90
25504;DHT22;13410;52.114;5.718;2023-11-21T01:25:04;12.50;99.90
25504;DHT22;13410;52.114;5.718;2023-11-21T01:27:35;12.50;99.90
25504;DHT22;13410;52.114;5.718;2023-11-21T01:30:02;12.60;99.90
25504;DHT22;13410;52.114;5.718;2023-11-21T01:32:28;12.60;99.90
25504;DHT22;13410;52.114;5.718;2023-11-21T01:34:54;12.60;99.90
25504;DHT22;13410;52.114;5.718;2023-11-21T01:37:20;12.70;99.90
25504;DHT22;13410;52.114;5.718;2023-11-21T01:39:47;12.60;99.90
25504;DHT22;13410;52.114;5.718;2023-11-21T01:42:13;12.60;99.90
25504;DHT22;13410;52.114;5.718;2023-11-21T01:44:39;12.50;99.90
25504;DHT22;13410;52.114;5.718;2023-11-21T01:47:06;12.50;99.90
25504;DHT22;13410;52.114;5.718;2023-11-21T01:49:35;12.50;99.90
25504;DHT22;13410;52.114;5.718;2023-11-21T01:52:01;12.50;99.90
25504;DHT22;13410;52.114;5.718;2023-11-21T01:54:27;12.50;99.90
25504;DHT22;13410;52.114;5.718;2023-11-21T01:56:57;12.50;99.90
25504;DHT22;13410;52.114;5.718;2023-11-21T01:59:32;12.60;99.90
25504;DHT22;13410;52.114;5.718;2023-11-21T02:01:59;12.60;99.90
25504;DHT22;13410;52.114;5.718;2023-11-21T02:04:25;12.60;99.90
25504;DHT22;13410;52.114;5.718;2023-11-21T02:06:50;12.60;99.90
25504;DHT22;13410;52.114;5.718;2023-11-21T02:09:16;12.60;99.90
25504;DHT22;13410;52.114;5.718;2023-11-21T02:11:43;12.70;99.90
25504;DHT22;13410;52.114;5.718;2023-11-21T02:14:09;12.70;99.90
25504;DHT22;13410;52.114;5.718;2023-11-21T02:16:36;12.70;99.90
25504;DHT22;13410;52.114;5.718;2023-11-21T02:19:03;12.50;99.90
25504;DHT22;13410;52.114;5.718;2023-11-21T02:21:32;12.40;99.90
25504;DHT22;13410;52.114;5.718;2023-11-21T02:23:58;12.50;99.90
25504;DHT22;13410;52.114;5.718;2023-11-21T02:26:24;12.60;99.90
25504;DHT22;13410;52.114;5.718;2023-11-21T02:28:51;12.50;99.90
25504;DHT22;13410;52.114;5.718;2023-11-21T02:31:18;12.50;99.90
25504;DHT22;13410;52.114;5.718;2023-11-21T02:33:44;12.50;99.90
25504;DHT22;13410;52.114;5.718;2023-11-21T02:36:09;12.60;99.90
25504;DHT22;13410;52.114;5.718;2023-11-21T02:38:35;12.60;99.90
25504;DHT22;13410;52.114;5.718;2023-11-21T02:41:00;12.60;99.90
25504;DHT22;13410;52.114;5.718;2023-11-21T02:43:26;12.70;99.90
25504;DHT22;13410;52.114;5.718;2023-11-21T02:45:52;12.70;99.90
25504;DHT22;13410;52.114;5.718;2023-11-21T02:48:17;12.80;99.90
25504;DHT22;13410;52.114;5.718;2023-11-21T02:50:43;12.90;99.90
25504;DHT22;13410;52.114;5.718;2023-11-21T02:53:09;13.00;99.90
25504;DHT22;13410;52.114;5.718;2023-11-21T02:55:36;13.00;99.90
25504;DHT22;13410;52.114;5.718;2023-11-21T02:58:02;13.00;99.90
25504;DHT22;13410;52.114;5.718;2023-11-21T03:00:29;13.00;99.90
25504;DHT22;13410;52.114;5.718;2023-11-21T03:02:57;13.00;99.90
25504;DHT22;13410;52.114;5.718;2023-11-21T03:05:22;13.00;99.90
25504;DHT22;13410;52.114;5.718;2023-11-21T03:07:48;13.10;99.90
25504;DHT22;13410;52.114;5.718;2023-11-21T03:10:13;13.10;99.90
25504;DHT22;13410;52.114;5.718;2023-11-21T03:12:39;13.10;99.90
25504;DHT22;13410;52.114;5.718;2023-11-21T03:15:06;13.20;99.90
25504;DHT22;13410;52.114;5.718;2023-11-21T03:17:32;13.30;99.90
25504;DHT22;13410;52.114;5.718;2023-11-21T03:19:59;13.20;99.90
25504;DHT22;13410;52.114;5.718;2023-11-21T03:22:25;13.30;99.90
25504;DHT22;13410;52.114;5.718;2023-11-21T03:24:51;13.30;99.90
25504;DHT22;13410;52.114;5.718;2023-11-21T03:27:18;13.30;99.90
25504;DHT22;13410;52.114;5.718;2023-11-21T03:29:43;13.20;99.90
25504;DHT22;13410;52.114;5.718;2023-11-21T03:32:10;13.30;99.90
25504;DHT22;13410;52.114;5.718;2023-11-21T03:34:41;13.30;99.90
25504;DHT22;13410;52.114;5.718;2023-11-21T03:37:17;13.20;99.90
25504;DHT22;13410;52.114;5.718;2023-11-21T03:39:43;13.30;99.90
25504;DHT22;13410;52.114;5.718;2023-11-21T03:42:09;13.20;99.90
25504;DHT22;13410;52.114;5.718;2023-11-21T03:44:34;13.20;99.90
25504;DHT22;13410;52.114;5.718;2023-11-21T03:47:00;13.30;99.90
25504;DHT22;13410;52.114;5.718;2023-11-21T03:49:25;13.10;99.90
25504;DHT22;13410;52.114;5.718;2023-11-21T03:51:51;13.20;99.90
25504;DHT22;13410;52.114;5.718;2023-11-21T03:54:16;13.20;99.90
25504;DHT22;13410;52.114;5.718;2023-11-21T03:56:42;13.10;99.90
25504;DHT22;13410;52.114;5.718;2023-11-21T03:59:07;13.10;99.90
25504;DHT22;13410;52.114;5.718;2023-11-21T04:01:33;13.20;99.90
25504;DHT22;13410;52.114;5.718;2023-11-21T04:03:58;13.20;99.90
25504;DHT22;13410;52.114;5.718;2023-11-21T04:06:24;13.30;99.90
25504;DHT22;13410;52.114;5.718;2023-11-21T04:08:50;13.40;99.90
25504;DHT22;13410;52.114;5.718;2023-11-21T04:11:16;13.40;99.90
25504;DHT22;13410;52.114;5.718;2023-11-21T04:13:41;13.40;99.90
25504;DHT22;13410;52.114;5.718;2023-11-21T04:16:08;13.50;99.90
25504;DHT22;13410;52.114;5.718;2023-11-21T04:18:36;13.50;99.90
25504;DHT22;13410;52.114;5.718;2023-11-21T04:21:01;13.60;99.90
25504;DHT22;13410;52.114;5.718;2023-11-21T04:23:29;13.60;99.90
25504;DHT22;13410;52.114;5.718;2023-11-21T04:25:55;13.70;99.90
25504;DHT22;13410;52.114;5.718;2023-11-21T04:28:22;13.70;99.90
25504;DHT22;13410;52.114;5.718;2023-11-21T04:30:48;13.80;99.90
25504;DHT22;13410;52.114;5.718;2023-11-21T04:33:13;13.80;99.90
25504;DHT22;13410;52.114;5.718;2023-11-21T04:35:39;13.80;99.90
25504;DHT22;13410;52.114;5.718;2023-11-21T04:38:05;13.90;99.90
25504;DHT22;13410;52.114;5.718;2023-11-21T04:40:30;13.90;99.90
25504;DHT22;13410;52.114;5.718;2023-11-21T04:42:56;14.00;99.90
25504;DHT22;13410;52.114;5.718;2023-11-21T04:45:22;14.00;99.90
25504;DHT22;13410;52.114;5.718;2023-11-21T04:47:48;14.10;99.90
25504;DHT22;13410;52.114;5.718;2023-11-21T04:50:13;14.10;99.90
25504;DHT22;13410;52.114;5.718;2023-11-21T04:52:39;14.10;99.90
25504;DHT22;13410;52.114;5.718;2023-11-21T04:55:05;14.00;99.90
25504;DHT22;13410;52.114;5.718;2023-11-21T04:57:32;14.10;99.90
25504;DHT22;13410;52.114;5.718;2023-11-21T04:59:57;14.10;99.90
25504;DHT22;13410;52.114;5.718;2023-11-21T05:02:23;14.10;99.90
25504;DHT22;13410;52.114;5.718;2023-11-21T05:04:49;14.20;99.90
25504;DHT22;13410;52.114;5.718;2023-11-21T05:07:14;14.20;99.90
25504;DHT22;13410;52.114;5.718;2023-11-21T05:09:42;14.10;99.90
25504;DHT22;13410;52.114;5.718;2023-11-21T05:12:14;14.20;99.90
25504;DHT22;13410;52.114;5.718;2023-11-21T05:14:40;14.20;99.90
25504;DHT22;13410;52.114;5.718;2023-11-21T05:17:07;14.30;99.90
25504;DHT22;13410;52.114;5.718;2023-11-21T05:19:33;14.30;99.90
25504;DHT22;13410;52.114;5.718;2023-11-21T05:22:00;14.30;99.90
25504;DHT22;13410;52.114;5.718;2023-11-21T05:24:26;14.20;99.90
25504;DHT22;13410;52.114;5.718;2023-11-21T05:26:51;14.30;99.90
25504;DHT22;13410;52.114;5.718;2023-11-21T05:29:18;14.30;99.90
25504;DHT22;13410;52.114;5.718;2023-11-21T05:31:43;14.20;99.90
25504;DHT22;13410;52.114;5.718;2023-11-21T05:34:09;14.30;99.90
25504;DHT22;13410;52.114;5.718;2023-11-21T05:36:34;14.30;99.90
25504;DHT22;13410;52.114;5.718;2023-11-21T05:39:00;14.30;99.90
25504;DHT22;13410;52.114;5.718;2023-11-21T05:41:26;14.30;99.90
25504;DHT22;13410;52.114;5.718;2023-11-21T05:43:51;14.20;99.90
25504;DHT22;13410;52.114;5.718;2023-11-21T05:46:17;14.20;99.90
25504;DHT22;13410;52.114;5.718;2023-11-21T05:48:43;14.20;99.90
25504;DHT22;13410;52.114;5.718;2023-11-21T05:51:09;14.30;99.90
25504;DHT22;13410;52.114;5.718;2023-11-21T05:53:34;14.30;99.90
25504;DHT22;13410;52.114;5.718;2023-11-21T05:56:00;14.30;99.90
25504;DHT22;13410;52.114;5.718;2023-11-21T05:58:25;14.30;99.90
25504;DHT22;13410;52.114;5.718;2023-11-21T06:00:51;14.40;99.90
25504;DHT22;13410;52.114;5.718;2023-11-21T06:03:16;14.40;99.90
25504;DHT22;13410;52.114;5.718;2023-11-21T06:05:42;14.40;99.90
25504;DHT22;13410;52.114;5.718;2023-11-21T06:08:08;14.40;99.90
25504;DHT22;13410;52.114;5.718;2023-11-21T06:10:35;14.40;99.90
25504;DHT22;13410;52.114;5.718;2023-11-21T06:13:01;14.50;99.90
25504;DHT22;13410;52.114;5.718;2023-11-21T06:15:26;14.50;99.90
25504;DHT22;13410;52.114;5.718;2023-11-21T06:17:52;14.50;99.90
25504;DHT22;13410;52.114;5.718;2023-11-21T06:20:19;14.40;99.90
25504;DHT22;13410;52.114;5.718;2023-11-21T06:22:47;14.50;99.90
25504;DHT22;13410;52.114;5.718;2023-11-21T06:25:14;14.50;99.90
25504;DHT22;13410;52.114;5.718;2023-11-21T06:27:45;14.50;99.90
25504;DHT22;13410;52.114;5.718;2023-11-21T06:30:12;14.60;99.90
25504;DHT22;13410;52.114;5.718;2023-11-21T06:32:39;14.60;99.90
25504;DHT22;13410;52.114;5.718;2023-11-21T06:35:05;14.60;99.90
25504;DHT22;13410;52.114;5.718;2023-11-21T06:37:31;14.60;99.90
25504;DHT22;13410;52.114;5.718;2023-11-21T06:39:58;14.70;99.90
25504;DHT22;13410;52.114;5.718;2023-11-21T06:42:25;14.60;99.90
25504;DHT22;13410;52.114;5.718;2023-11-21T06:44:51;14.60;99.90
25504;DHT22;13410;52.114;5.718;2023-11-21T06:47:23;14.60;99.90
25504;DHT22;13410;52.114;5.718;2023-11-21T06:49:52;14.60;99.90
25504;DHT22;13410;52.114;5.718;2023-11-21T06:52:18;14.60;99.90
25504;DHT22;13410;52.114;5.718;2023-11-21T06:54:44;14.70;99.90
25504;DHT22;13410;52.114;5.718;2023-11-21T06:57:11;14.70;99.90
25504;DHT22;13410;52.114;5.718;2023-11-21T06:59:36;14.70;99.90
25504;DHT22;13410;52.114;5.718;2023-11-21T07:02:02;14.70;99.90
25504;DHT22;13410;52.114;5.718;2023-11-21T07:04:28;14.70;99.90
25504;DHT22;13410;52.114;5.718;2023-11-21T07:07:08;14.70;99.90
25504;DHT22;13410;52.114;5.718;2023-11-21T07:09:34;14.90;99.90
25504;DHT22;13410;52.114;5.718;2023-11-21T07:12:00;14.80;99.90
25504;DHT22;13410;52.114;5.718;2023-11-21T07:14:26;14.80;99.90
25504;DHT22;13410;52.114;5.718;2023-11-21T07:16:52;14.80;99.90
25504;DHT22;13410;52.114;5.718;2023-11-21T07:19:18;14.80;99.90
25504;DHT22;13410;52.114;5.718;2023-11-21T07:21:43;14.80;99.90
25504;DHT22;13410;52.114;5.718;2023-11-21T07:24:09;14.80;99.90
25504;DHT22;13410;52.114;5.718;2023-11-21T07:26:35;14.80;99.90
25504;DHT22;13410;52.114;5.718;2023-11-21T07:29:01;14.80;99.90
25504;DHT22;13410;52.114;5.718;2023-11-21T07:31:28;14.80;99.90
25504;DHT22;13410;52.114;5.718;2023-11-21T07:33:54;14.80;99.90
25504;DHT22;13410;52.114;5.718;2023-11-21T07:36:21;14.90;99.90
25504;DHT22;13410;52.114;5.718;2023-11-21T07:38:48;14.90;99.90
25504;DHT22;13410;52.114;5.718;2023-11-21T07:41:14;14.90;99.90
25504;DHT22;13410;52.114;5.718;2023-11-21T07:43:43;14.90;99.90
25504;DHT22;13410;52.114;5.718;2023-11-21T07:46:08;14.80;99.90
25504;DHT22;13410;52.114;5.718;2023-11-21T07:48:34;14.70;99.90
25504;DHT22;13410;52.114;5.718;2023-11-21T07:51:01;14.70;99.90
25504;DHT22;13410;52.114;5.718;2023-11-21T07:53:28;14.80;99.90
25504;DHT22;13410;52.114;5.718;2023-11-21T07:56:02;14.90;99.90
25504;DHT22;13410;52.114;5.718;2023-11-21T07:58:28;14.90;99.90
25504;DHT22;13410;52.114;5.718;2023-11-21T08:00:55;14.90;99.90
25504;DHT22;13410;52.114;5.718;2023-11-21T08:03:20;15.00;99.90
25504;DHT22;13410;52.114;5.718;2023-11-21T08:05:47;14.90;99.90
25504;DHT22;13410;52.114;5.718;2023-11-21T08:08:13;14.90;99.90
25504;DHT22;13410;52.114;5.718;2023-11-21T08:10:39;15.00;99.90
25504;DHT22;13410;52.114;5.718;2023-11-21T08:13:05;15.00;99.90
25504;DHT22;13410;52.114;5.718;2023-11-21T08:15:35;15.10;99.90
25504;DHT22;13410;52.114;5.718;2023-11-21T08:18:02;15.10;99.90
25504;DHT22;13410;52.114;5.718;2023-11-21T08:20:27;15.10;99.90
25504;DHT22;13410;52.114;5.718;2023-11-21T08:22:53;15.30;99.90
25504;DHT22;13410;52.114;5.718;2023-11-21T08:25:22;15.10;99.90
25504;DHT22;13410;52.114;5.718;2023-11-21T08:27:48;14.90;99.90
25504;DHT22;13410;52.114;5.718;2023-11-21T08:30:14;14.80;99.90
25504;DHT22;13410;52.114;5.718;2023-11-21T08:32:42;14.80;99.90
25504;DHT22;13410;52.114;5.718;2023-11-21T08:35:08;14.90;99.90
25504;DHT22;13410;52.114;5.718;2023-11-21T08:37:34;15.00;99.90
25504;DHT22;13410;52.114;5.718;2023-11-21T08:40:03;14.80;99.90
25504;DHT22;13410;52.114;5.718;2023-11-21T08:42:29;14.70;99.90
25504;DHT22;13410;52.114;5.718;2023-11-21T08:44:55;14.80;99.90
25504;DHT22;13410;52.114;5.718;2023-11-21T08:47:23;15.00;99.90
25504;DHT22;13410;52.114;5.718;2023-11-21T08:49:50;14.90;99.90
25504;DHT22;13410;52.114;5.718;2023-11-21T08:52:18;14.80;99.90
25504;DHT22;13410;52.114;5.718;2023-11-21T08:54:46;14.70;99.90
25504;DHT22;13410;52.114;5.718;2023-11-21T08:57:11;14.70;99.90
25504;DHT22;13410;52.114;5.718;2023-11-21T08:59:37;14.60;99.90
25504;DHT22;13410;52.114;5.718;2023-11-21T09:02:03;14.60;99.90
25504;DHT22;13410;52.114;5.718;2023-11-21T09:04:28;14.80;99.90
25504;DHT22;13410;52.114;5.718;2023-11-21T09:06:54;14.80;99.90
25504;DHT22;13410;52.114;5.718;2023-11-21T09:09:19;14.70;99.90
25504;DHT22;13410;52.114;5.718;2023-11-21T09:11:45;14.60;99.90
25504;DHT22;13410;52.114;5.718;2023-11-21T09:14:11;14.60;99.90
25504;DHT22;13410;52.114;5.718;2023-11-21T09:16:40;14.70;99.90
25504;DHT22;13410;52.114;5.718;2023-11-21T09:19:06;14.70;99.90
25504;DHT22;13410;52.114;5.718;2023-11-21T09:21:32;14.70;99.90
25504;DHT22;13410;52.114;5.718;2023-11-21T09:24:01;14.80;99.90
25504;DHT22;13410;52.114;5.718;2023-11-21T09:26:26;14.70;99.90
25504;DHT22;13410;52.114;5.718;2023-11-21T09:28:52;14.70;99.90
25504;DHT22;13410;52.114;5.718;2023-11-21T09:31:18;14.90;99.90
25504;DHT22;13410;52.114;5.718;2023-11-21T09:33:48;15.00;99.90
25504;DHT22;13410;52.114;5.718;2023-11-21T09:36:13;15.10;99.90
25504;DHT22;13410;52.114;5.718;2023-11-21T09:38:40;15.30;99.90
25504;DHT22;13410;52.114;5.718;2023-11-21T09:41:28;15.40;99.90
25504;DHT22;13410;52.114;5.718;2023-11-21T09:43:57;15.20;99.90
25504;DHT22;13410;52.114;5.718;2023-11-21T09:46:28;15.10;99.90
25504;DHT22;13410;52.114;5.718;2023-11-21T09:48:56;15.00;99.90
25504;DHT22;13410;52.114;5.718;2023-11-21T09:51:27;14.70;99.90
25504;DHT22;13410;52.114;5.718;2023-11-21T09:53:55;15.00;99.90
25504;DHT22;13410;52.114;5.718;2023-11-21T09:56:23;14.90;99.90
25504;DHT22;13410;52.114;5.718;2023-11-21T09:58:53;14.50;99.90
25504;DHT22;13410;52.114;5.718;2023-11-21T10:01:21;14.30;99.90
25504;DHT22;13410;52.114;5.718;2023-11-21T10:03:49;14.30;99.90
25504;DHT22;13410;52.114;5.718;2023-11-21T10:06:17;14.10;99.90
25504;DHT22;13410;52.114;5.718;2023-11-21T10:08:43;14.20;99.90
25504;DHT22;13410;52.114;5.718;2023-11-21T10:11:11;14.10;99.90
25504;DHT22;13410;52.114;5.718;2023-11-21T10:13:37;14.10;99.90
25504;DHT22;13410;52.114;5.718;2023-11-21T10:16:04;14.10;99.90
25504;DHT22;13410;52.114;5.718;2023-11-21T10:18:32;14.10;99.90
25504;DHT22;13410;52.114;5.718;2023-11-21T10:20:59;14.00;99.90
25504;DHT22;13410;52.114;5.718;2023-11-21T10:23:25;14.20;99.90
25504;DHT22;13410;52.114;5.718;2023-11-21T10:25:52;14.10;99.90
25504;DHT22;13410;52.114;5.718;2023-11-21T10:28:17;13.70;99.90
25504;DHT22;13410;52.114;5.718;2023-11-21T10:30:43;13.90;99.90
25504;DHT22;13410;52.114;5.718;2023-11-21T10:33:09;14.10;99.90
25504;DHT22;13410;52.114;5.718;2023-11-21T10:35:43;13.90;99.90
25504;DHT22;13410;52.114;5.718;2023-11-21T10:38:21;13.90;99.90
25504;DHT22;13410;52.114;5.718;2023-11-21T10:40:49;13.80;99.90
25504;DHT22;13410;52.114;5.718;2023-11-21T10:43:15;13.90;99.90
25504;DHT22;13410;52.114;5.718;2023-11-21T10:45:42;14.00;99.90
25504;DHT22;13410;52.114;5.718;2023-11-21T10:48:14;14.00;99.90
25504;DHT22;13410;52.114;5.718;2023-11-21T10:50:47;13.90;99.90
25504;DHT22;13410;52.114;5.718;2023-11-21T10:53:12;13.60;99.90
25504;DHT22;13410;52.114;5.718;2023-11-21T10:55:38;13.30;99.90
25504;DHT22;13410;52.114;5.718;2023-11-21T10:58:04;13.20;99.90
25504;DHT22;13410;52.114;5.718;2023-11-21T11:00:32;13.20;99.90
25504;DHT22;13410;52.114;5.718;2023-11-21T11:02:59;13.50;99.90
25504;DHT22;13410;52.114;5.718;2023-11-21T11:05:26;13.40;99.90
25504;DHT22;13410;52.114;5.718;2023-11-21T11:08:00;13.30;99.90
25504;DHT22;13410;52.114;5.718;2023-11-21T11:10:28;13.50;99.90
25504;DHT22;13410;52.114;5.718;2023-11-21T11:12:57;13.40;99.90
25504;DHT22;13410;52.114;5.718;2023-11-21T11:15:25;13.70;99.90
25504;DHT22;13410;52.114;5.718;2023-11-21T11:17:50;13.70;99.90
25504;DHT22;13410;52.114;5.718;2023-11-21T11:20:17;13.60;99.90
25504;DHT22;13410;52.114;5.718;2023-11-21T11:29:00;13.50;99.90
25504;DHT22;13410;52.114;5.718;2023-11-21T11:31:58;13.60;99.90
25504;DHT22;13410;52.114;5.718;2023-11-21T11:34:35;13.70;99.90
25504;DHT22;13410;52.114;5.718;2023-11-21T11:37:04;13.80;99.90
25504;DHT22;13410;52.114;5.718;2023-11-21T11:39:39;13.80;99.90
25504;DHT22;13410;52.114;5.718;2023-11-21T11:42:10;13.90;99.90
25504;DHT22;13410;52.114;5.718;2023-11-21T11:47:15;14.00;99.90
25504;DHT22;13410;52.114;5.718;2023-11-21T11:50:10;14.00;99.90
25504;DHT22;13410;52.114;5.718;2023-11-21T11:52:47;14.10;99.90
25504;DHT22;13410;52.114;5.718;2023-11-21T11:55:15;13.90;99.90
25504;DHT22;13410;52.114;5.718;2023-11-21T11:57:44;13.70;99.90
25504;DHT22;13410;52.114;5.718;2023-11-21T12:00:15;13.60;99.90
25504;DHT22;13410;52.114;5.718;2023-11-21T12:02:46;13.70;99.90
25504;DHT22;13410;52.114;5.718;2023-11-21T12:05:20;13.60;99.90
25504;DHT22;13410;52.114;5.718;2023-11-21T12:07:51;13.40;99.90
25504;DHT22;13410;52.114;5.718;2023-11-21T12:10:28;13.40;99.90
25504;DHT22;13410;52.114;5.718;2023-11-21T12:12:55;13.70;99.90
25504;DHT22;13410;52.114;5.718;2023-11-21T12:15:22;13.80;99.90
25504;DHT22;13410;52.114;5.718;2023-11-21T12:17:49;14.00;99.90
25504;DHT22;13410;52.114;5.718;2023-11-21T12:20:19;14.10;99.90
25504;DHT22;13410;52.114;5.718;2023-11-21T12:22:47;14.10;99.90
25504;DHT22;13410;52.114;5.718;2023-11-21T12:25:16;13.70;99.90
25504;DHT22;13410;52.114;5.718;2023-11-21T12:27:45;13.70;99.90
25504;DHT22;13410;52.114;5.718;2023-11-21T12:30:12;13.50;99.90
25504;DHT22;13410;52.114;5.718;2023-11-21T12:32:44;13.40;99.90
25504;DHT22;13410;52.114;5.718;2023-11-21T12:35:11;13.60;99.90
25504;DHT22;13410;52.114;5.718;2023-11-21T12:37:41;13.60;99.90
25504;DHT22;13410;52.114;5.718;2023-11-21T12:40:10;13.80;99.90
25504;DHT22;13410;52.114;5.718;2023-11-21T12:43:01;13.80;99.90
25504;DHT22;13410;52.114;5.718;2023-11-21T12:45:29;14.00;99.90
25504;DHT22;13410;52.114;5.718;2023-11-21T12:48:00;14.10;99.90
25504;DHT22;13410;52.114;5.718;2023-11-21T12:50:30;14.00;99.90
25504;DHT22;13410;52.114;5.718;2023-11-21T12:53:04;14.20;99.90
25504;DHT22;13410;52.114;5.718;2023-11-21T12:55:32;14.40;99.90
25504;DHT22;13410;52.114;5.718;2023-11-21T12:58:01;14.50;99.90
25504;DHT22;13410;52.114;5.718;2023-11-21T13:00:36;14.60;99.90
25504;DHT22;13410;52.114;5.718;2023-11-21T13:03:07;14.70;99.90
25504;DHT22;13410;52.114;5.718;2023-11-21T13:05:35;14.70;99.90
25504;DHT22;13410;52.114;5.718;2023-11-21T13:08:04;14.70;99.90
25504;DHT22;13410;52.114;5.718;2023-11-21T13:10:34;14.80;99.90
25504;DHT22;13410;52.114;5.718;2023-11-21T13:13:02;14.80;99.90
25504;DHT22;13410;52.114;5.718;2023-11-21T13:15:32;14.70;99.90
25504;DHT22;13410;52.114;5.718;2023-11-21T13:17:58;14.60;99.90
25504;DHT22;13410;52.114;5.718;2023-11-21T13:20:25;14.80;99.90
25504;DHT22;13410;52.114;5.718;2023-11-21T13:22:55;14.80;99.90
25504;DHT22;13410;52.114;5.718;2023-11-21T13:25:30;14.90;99.90
25504;DHT22;13410;52.114;5.718;2023-11-21T13:27:59;15.00;99.90
25504;DHT22;13410;52.114;5.718;2023-11-21T13:30:26;14.90;99.90
25504;DHT22;13410;52.114;5.718;2023-11-21T13:32:56;14.70;99.90
25504;DHT22;13410;52.114;5.718;2023-11-21T13:35:28;14.80;99.90
25504;DHT22;13410;52.114;5.718;2023-11-21T13:38:12;14.70;99.90
25504;DHT22;13410;52.114;5.718;2023-11-21T13:40:39;14.60;99.90
25504;DHT22;13410;52.114;5.718;2023-11-21T13:43:12;14.40;99.90
25504;DHT22;13410;52.114;5.718;2023-11-21T13:45:42;13.90;99.90
25504;DHT22;13410;52.114;5.718;2023-11-21T13:48:08;13.70;99.90
25504;DHT22;13410;52.114;5.718;2023-11-21T13:50:43;13.40;99.90
25504;DHT22;13410;52.114;5.718;2023-11-21T13:53:14;12.90;99.90
25504;DHT22;13410;52.114;5.718;2023-11-21T13:55:54;13.00;99.90
25504;DHT22;13410;52.114;5.718;2023-11-21T13:58:20;13.00;99.90
25504;DHT22;13410;52.114;5.718;2023-11-21T14:00:53;13.30;99.90
25504;DHT22;13410;52.114;5.718;2023-11-21T14:03:24;13.50;99.90
25504;DHT22;13410;52.114;5.718;2023-11-21T14:05:58;13.40;99.90
25504;DHT22;13410;52.114;5.718;2023-11-21T14:08:26;13.30;99.90
25504;DHT22;13410;52.114;5.718;2023-11-21T14:10:54;13.00;99.90
25504;DHT22;13410;52.114;5.718;2023-11-21T14:13:26;13.10;99.90
25504;DHT22;13410;52.114;5.718;2023-11-21T14:15:53;13.10;99.90
25504;DHT22;13410;52.114;5.718;2023-11-21T14:18:26;13.00;99.90
25504;DHT22;13410;52.114;5.718;2023-11-21T14:21:04;12.70;99.90
25504;DHT22;13410;52.114;5.718;2023-11-21T14:23:31;12.50;99.90
25504;DHT22;13410;52.114;5.718;2023-11-21T14:25:58;12.50;99.90
25504;DHT22;13410;52.114;5.718;2023-11-21T14:28:26;12.40;99.90
25504;DHT22;13410;52.114;5.718;2023-11-21T14:30:52;12.50;99.90
25504;DHT22;13410;52.114;5.718;2023-11-21T14:33:17;12.30;99.90
25504;DHT22;13410;52.114;5.718;2023-11-21T14:35:43;12.30;99.90
25504;DHT22;13410;52.114;5.718;2023-11-21T14:38:09;12.20;99.90
25504;DHT22;13410;52.114;5.718;2023-11-21T14:40:35;12.20;99.90
25504;DHT22;13410;52.114;5.718;2023-11-21T14:43:02;11.90;99.90
25504;DHT22;13410;52.114;5.718;2023-11-21T14:45:31;11.90;99.90
25504;DHT22;13410;52.114;5.718;2023-11-21T14:47:57;11.90;99.90
25504;DHT22;13410;52.114;5.718;2023-11-21T14:50:32;12.00;99.90
25504;DHT22;13410;52.114;5.718;2023-11-21T14:53:06;12.20;99.90
25504;DHT22;13410;52.114;5.718;2023-11-21T14:55:33;12.40;99.90
25504;DHT22;13410;52.114;5.718;2023-11-21T14:58:18;12.10;99.90
25504;DHT22;13410;52.114;5.718;2023-11-21T15:00:57;11.90;99.90
25504;DHT22;13410;52.114;5.718;2023-11-21T15:03:27;11.70;99.90
25504;DHT22;13410;52.114;5.718;2023-11-21T15:05:59;11.60;99.90
25504;DHT22;13410;52.114;5.718;2023-11-21T15:08:44;11.80;99.90
25504;DHT22;13410;52.114;5.718;2023-11-21T15:11:09;11.80;99.90
25504;DHT22;13410;52.114;5.718;2023-11-21T15:13:40;11.60;99.90
25504;DHT22;13410;52.114;5.718;2023-11-21T15:16:07;11.60;99.90
25504;DHT22;13410;52.114;5.718;2023-11-21T15:18:34;11.70;99.90
25504;DHT22;13410;52.114;5.718;2023-11-21T15:21:01;12.10;99.90
25504;DHT22;13410;52.114;5.718;2023-11-21T15:23:28;12.20;99.90
25504;DHT22;13410;52.114;5.718;2023-11-21T15:25:56;12.10;99.90
25504;DHT22;13410;52.114;5.718;2023-11-21T15:28:21;12.10;99.90
25504;DHT22;13410;52.114;5.718;2023-11-21T15:30:47;12.00;99.90
25504;DHT22;13410;52.114;5.718;2023-11-21T15:33:16;11.80;99.90
25504;DHT22;13410;52.114;5.718;2023-11-21T15:35:42;11.90;99.90
25504;DHT22;13410;52.114;5.718;2023-11-21T15:38:08;11.80;99.90
25504;DHT22;13410;52.114;5.718;2023-11-21T15:40:34;11.80;99.90
25504;DHT22;13410;52.114;5.718;2023-11-21T15:43:01;11.80;99.90